Time;durP1;ratioP1;P1;durP2;ratioP2;P2;SDS_P1;SDS_P2;PMS_P1;PMS_P2;Temp;Humidity;BMP_temperature;BMP_pressure;BME280_temperature;BME280_humidity;BME280_pressure;Samples;Min_cycle;Max_cycle;Signal;HPM_P1;HPM_P2
2022/12/08 00:01:28;;;;;;;3.45;1.25;;;4.80;99.90;;;4.75;87.71;100282.25;4996110;28;20216;-67
2022/12/08 00:03:56;;;;;;;5.20;2.97;;;4.80;99.90;;;4.94;86.87;100266.59;5014255;28;20241;-68
2022/12/08 00:09:37;;;;;;;2.60;1.63;;;4.80;99.90;;;4.73;88.04;100282.34;5008291;28;20201;-68
2022/12/08 00:12:15;;;;;;;1.10;0.93;;;4.80;99.90;;;4.83;87.12;100279.28;5010698;28;20251;-67
2022/12/08 00:14:45;;;;;;;2.88;1.10;;;4.80;99.90;;;4.80;87.66;100271.66;5011290;28;20248;-68
2022/12/08 00:17:15;;;;;;;0.85;0.80;;;4.80;99.90;;;4.72;88.31;100272.09;5009568;28;20224;-67
2022/12/08 00:19:42;;;;;;;2.92;2.45;;;4.80;99.90;;;4.79;88.03;100265.69;5012361;28;20210;-67
2022/12/08 00:22:14;;;;;;;2.83;2.60;;;4.70;99.90;;;4.87;87.69;100258.34;5010440;28;20209;-69
2022/12/08 00:24:44;;;;;;;1.95;1.75;;;4.80;99.90;;;4.89;87.29;100260.84;5012772;28;20255;-67
2022/12/08 00:27:14;;;;;;;4.07;1.45;;;4.80;99.90;;;4.78;88.24;100265.75;5012074;28;20221;-68
2022/12/08 00:29:44;;;;;;;2.08;1.73;;;4.70;99.90;;;4.79;87.46;100267.44;5012460;28;20291;-67
2022/12/08 00:32:11;;;;;;;3.20;1.98;;;4.80;99.90;;;4.84;86.96;100260.25;5004092;28;20763;-67
2022/12/08 00:34:38;;;;;;;2.47;2.28;;;4.80;99.90;;;4.86;87.13;100256.66;5011774;28;20210;-67
2022/12/08 00:37:05;;;;;;;2.20;1.67;;;4.80;99.90;;;4.88;87.25;100262.59;5010313;28;20229;-67
2022/12/08 00:39:32;;;;;;;3.55;2.33;;;4.80;99.90;;;4.80;87.56;100261.31;4994233;28;20209;-67
2022/12/08 00:42:11;;;;;;;2.03;1.83;;;4.80;99.90;;;4.90;87.01;100247.81;5011776;28;20214;-67
2022/12/08 00:44:43;;;;;;;2.72;1.80;;;4.80;99.90;;;4.83;87.56;100250.84;5011754;28;20210;-69
2022/12/08 00:47:12;;;;;;;2.78;2.55;;;4.80;99.90;;;4.96;87.20;100251.84;5012560;28;20280;-68
2022/12/08 00:49:39;;;;;;;3.00;2.35;;;4.80;99.90;;;5.00;86.46;100261.09;5012690;28;20210;-69
2022/12/08 00:52:07;;;;;;;2.20;1.75;;;4.90;99.90;;;5.02;86.65;100252.34;5012821;28;20685;-68
2022/12/08 00:54:33;;;;;;;2.65;1.88;;;4.90;99.90;;;4.95;86.58;100253.59;5012788;28;20423;-67
2022/12/08 00:57:00;;;;;;;2.53;2.33;;;4.90;99.90;;;4.99;87.11;100252.50;5012859;28;20245;-68
2022/12/08 00:59:27;;;;;;;3.08;2.85;;;4.90;99.90;;;4.93;86.61;100246.81;5011160;28;20686;-67
2022/12/08 01:01:54;;;;;;;4.47;2.13;;;4.90;99.90;;;4.98;86.73;100250.84;5012360;28;20241;-68
2022/12/08 01:04:21;;;;;;;1.58;1.48;;;4.90;99.90;;;4.88;87.34;100247.06;5011622;28;20207;-67
2022/12/08 01:06:49;;;;;;;3.35;1.95;;;4.90;99.90;;;4.60;88.97;100239.97;5012287;28;20234;-69
2022/12/08 01:09:17;;;;;;;3.15;2.30;;;4.80;99.90;;;4.63;88.99;100239.81;5013865;28;20202;-68
2022/12/08 01:11:45;;;;;;;2.60;1.00;;;4.80;99.90;;;4.67;88.93;100235.31;5008363;28;20225;-68
2022/12/08 01:14:13;;;;;;;2.47;1.25;;;4.70;99.90;;;4.65;88.77;100222.47;5011869;28;20224;-67
2022/12/08 01:16:40;;;;;;;3.90;2.17;;;4.70;99.90;;;4.53;89.30;100228.31;4994681;28;20236;-68
2022/12/08 01:19:11;;;;;;;6.18;2.45;;;4.70;99.90;;;4.40;90.56;100229.88;5011444;28;20202;-67
2022/12/08 01:21:39;;;;;;;0.40;0.40;;;4.60;99.90;;;4.38;90.06;100218.81;4995884;28;20223;-68
2022/12/08 01:24:08;;;;;;;1.27;0.82;;;4.50;99.90;;;4.52;89.28;100221.47;5012925;28;20206;-67
2022/12/08 01:26:35;;;;;;;3.08;1.85;;;4.50;99.90;;;4.55;89.45;100216.16;4995690;28;20238;-68
2022/12/08 01:29:02;;;;;;;1.83;1.67;;;4.60;99.90;;;4.56;89.25;100215.22;5012808;28;20206;-67
2022/12/08 01:31:28;;;;;;;1.88;1.77;;;4.60;99.90;;;4.51;89.60;100208.66;5012790;28;20252;-68
2022/12/08 01:33:56;;;;;;;1.90;1.75;;;4.50;99.90;;;4.51;89.28;100217.25;5011623;28;20205;-68
2022/12/08 01:36:27;;;;;;;3.25;1.92;;;4.60;99.90;;;4.71;88.37;100216.13;5014417;28;20240;-68
2022/12/08 01:38:57;;;;;;;1.33;1.25;;;4.60;99.90;;;4.74;87.75;100221.16;5015468;28;20211;-67
2022/12/08 01:41:28;;;;;;;1.17;0.85;;;4.70;99.90;;;4.56;88.81;100214.38;5014353;28;20268;-68
2022/12/08 01:44:09;;;;;;;1.27;0.93;;;4.70;99.90;;;4.53;89.24;100215.41;5015894;28;20211;-69
2022/12/08 01:46:46;;;;;;;1.88;1.77;;;4.60;99.90;;;4.54;89.24;100218.78;5012704;28;20220;-68
2022/12/08 01:49:23;;;;;;;3.80;2.03;;;4.60;99.90;;;4.58;89.14;100225.47;5017226;28;20204;-67
2022/12/08 01:52:10;;;;;;;2.60;1.40;;;4.60;99.90;;;4.83;88.06;100222.41;4994932;28;20230;-68
2022/12/08 01:54:58;;;;;;;1.55;1.38;;;4.70;99.90;;;4.87;87.91;100216.16;4992530;28;20202;-68
2022/12/08 01:57:34;;;;;;;0.98;0.88;;;4.70;99.90;;;4.80;88.08;100217.38;5015818;28;20611;-68
2022/12/08 02:00:11;;;;;;;1.10;0.90;;;4.80;99.90;;;4.78;88.23;100211.47;5014752;28;20209;-67
2022/12/08 02:03:02;;;;;;;3.55;1.85;;;4.80;99.90;;;4.71;88.90;100206.63;4979087;28;20218;-66
2022/12/08 02:05:34;;;;;;;2.67;2.10;;;4.70;99.90;;;4.72;88.70;100200.56;4978454;28;20230;-69
2022/12/08 02:08:10;;;;;;;2.50;2.15;;;4.80;99.90;;;4.71;88.13;100201.47;4981330;28;20225;-66
2022/12/08 02:10:41;;;;;;;3.83;1.30;;;4.70;99.90;;;4.76;88.35;100201.22;4997544;28;20224;-68
2022/12/08 02:13:13;;;;;;;3.83;1.90;;;4.70;99.90;;;4.64;89.28;100197.53;4997188;28;20221;-67
2022/12/08 02:16:01;;;;;;;0.68;0.68;;;4.70;99.90;;;4.68;89.09;100199.03;5015716;28;20206;-67
2022/12/08 02:19:21;;;;;;;1.60;1.15;;;4.70;99.90;;;4.66;88.93;100203.47;4997758;28;20214;-68
2022/12/08 02:22:06;;;;;;;1.35;1.25;;;4.70;99.90;;;4.84;88.48;100200.78;4991820;28;20217;-68
2022/12/08 02:24:55;;;;;;;1.50;1.40;;;4.70;99.90;;;4.76;88.51;100197.81;5015865;28;20688;-68
2022/12/08 02:28:08;;;;;;;1.52;0.65;;;4.70;99.90;;;4.55;89.25;100189.47;5011389;28;20226;-67
2022/12/08 02:30:52;;;;;;;2.20;1.85;;;4.70;99.90;;;4.66;89.26;100193.13;4996339;28;20214;-67
2022/12/08 02:34:02;;;;;;;1.52;1.27;;;4.60;99.90;;;4.89;88.17;100191.03;4998970;28;20198;-67
2022/12/08 02:36:47;;;;;;;1.42;1.33;;;4.70;99.90;;;4.76;88.62;100188.31;5015184;22;20300;-64
2022/12/08 02:39:44;;;;;;;1.27;1.25;;;4.70;99.90;;;4.86;87.79;100183.44;5025003;28;20212;-63
2022/12/08 02:42:36;;;;;;;4.95;2.90;;;4.80;99.90;;;4.83;88.32;100192.22;5021228;28;20212;-64
2022/12/08 02:45:22;;;;;;;2.38;1.92;;;4.70;99.90;;;5.03;87.26;100189.34;5009358;28;20225;-64
2022/12/08 02:47:51;;;;;;;1.60;1.50;;;4.80;99.90;;;5.06;87.14;100191.78;5006844;28;20234;-63
2022/12/08 02:50:18;;;;;;;4.10;3.42;;;4.90;99.90;;;5.11;86.60;100179.41;5012308;28;20683;-63
2022/12/08 02:52:47;;;;;;;2.92;2.60;;;4.90;99.90;;;5.18;87.13;100180.72;5014085;28;20206;-63
2022/12/08 02:55:24;;;;;;;2.78;2.00;;;5.00;99.90;;;5.30;86.29;100184.38;5016319;28;20211;-63
2022/12/08 02:58:21;;;;;;;3.08;2.70;;;5.00;99.90;;;5.30;86.56;100187.78;5032037;28;20219;-65
2022/12/08 03:01:36;;;;;;;2.00;1.70;;;5.10;99.90;;;5.33;84.99;100181.59;4994416;28;20218;-63
2022/12/08 03:04:41;;;;;;;0.93;0.93;;;5.10;99.90;;;5.10;86.25;100172.56;4949793;28;20580;-66
2022/12/08 03:07:28;;;;;;;2.40;2.13;;;5.10;99.90;;;5.04;87.19;100167.75;5009701;28;20226;-63
2022/12/08 03:10:20;;;;;;;3.10;2.10;;;5.00;99.90;;;5.09;86.61;100164.91;4993094;28;20206;-65
2022/12/08 03:13:05;;;;;;;1.77;1.67;;;5.00;99.90;;;5.19;86.42;100163.47;5006754;28;20202;-63
2022/12/08 03:15:34;;;;;;;4.35;2.60;;;5.00;99.90;;;5.22;86.01;100161.53;4958638;28;20653;-66
2022/12/08 03:18:04;;;;;;;6.85;4.03;;;5.00;99.90;;;5.30;86.13;100164.50;4984495;28;20325;-63
2022/12/08 03:20:33;;;;;;;2.28;2.15;;;5.10;99.90;;;5.36;85.88;100166.75;5015657;28;20214;-63
2022/12/08 03:23:05;;;;;;;1.65;1.55;;;5.10;99.90;;;5.29;85.72;100157.69;4999078;28;20202;-64
2022/12/08 03:25:36;;;;;;;1.13;0.90;;;5.20;99.90;;;5.22;85.85;100150.34;4987451;28;20703;-63
2022/12/08 03:28:04;;;;;;;1.40;1.30;;;5.20;99.90;;;5.17;86.03;100155.81;4994062;28;21240;-65
2022/12/08 03:30:36;;;;;;;1.70;1.60;;;5.10;99.90;;;5.17;86.57;100144.63;4995641;28;20282;-63
2022/12/08 03:33:06;;;;;;;4.10;1.98;;;5.10;99.90;;;5.29;86.11;100151.66;5000889;28;20203;-63
2022/12/08 03:35:36;;;;;;;3.05;2.72;;;5.10;99.90;;;5.36;85.78;100143.47;5015478;28;20631;-63
2022/12/08 03:38:07;;;;;;;6.97;3.90;;;5.10;99.90;;;5.40;85.65;100146.72;5010423;28;20230;-63
2022/12/08 03:40:34;;;;;;;4.30;3.03;;;5.10;99.90;;;5.46;85.21;100144.59;5012326;28;20631;-63
2022/12/08 03:43:02;;;;;;;3.10;2.80;;;5.20;99.90;;;5.51;85.13;100141.75;5017130;28;20621;-66
2022/12/08 03:45:29;;;;;;;4.73;2.60;;;5.30;99.90;;;5.61;84.61;100131.66;5031635;28;20264;-63
2022/12/08 03:47:57;;;;;;;1.95;1.30;;;5.30;99.90;;;5.65;84.26;100131.41;5028845;28;21307;-63
2022/12/08 03:50:24;;;;;;;2.42;2.00;;;5.40;99.90;;;5.65;84.33;100133.16;5019568;28;20194;-63
2022/12/08 03:52:51;;;;;;;4.23;2.83;;;5.40;99.90;;;5.58;84.14;100119.72;5017097;28;20199;-63
2022/12/08 03:55:18;;;;;;;1.30;1.20;;;5.40;99.90;;;5.41;84.56;100125.06;5011911;28;20665;-65
2022/12/08 03:57:45;;;;;;;3.50;2.50;;;5.40;99.90;;;5.48;84.62;100121.22;4993768;28;21303;-63
2022/12/08 04:00:16;;;;;;;2.28;2.08;;;5.30;99.90;;;5.57;83.89;100109.47;5011299;28;20261;-63
2022/12/08 04:02:43;;;;;;;2.10;1.90;;;5.30;99.90;;;5.55;84.32;100107.00;4992934;28;20207;-63
2022/12/08 04:05:10;;;;;;;1.90;1.80;;;5.40;99.90;;;5.64;83.88;100109.03;4976140;28;20285;-62
2022/12/08 04:07:36;;;;;;;2.05;1.55;;;5.40;99.90;;;5.51;84.49;100103.72;5014743;28;20276;-66
2022/12/08 04:10:04;;;;;;;2.95;2.03;;;5.40;99.90;;;5.64;84.08;100105.63;5023794;28;20298;-64
2022/12/08 04:12:32;;;;;;;1.30;1.20;;;5.40;99.90;;;5.57;84.99;100096.53;5016460;28;20616;-66
2022/12/08 04:14:58;;;;;;;1.60;1.50;;;5.40;99.90;;;5.49;85.40;100097.00;4977121;28;20634;-66
2022/12/08 04:17:26;;;;;;;1.40;1.30;;;5.40;99.90;;;5.38;86.24;100089.88;5022594;28;20711;-66
2022/12/08 04:19:53;;;;;;;2.20;1.80;;;5.30;99.90;;;5.37;86.64;100088.22;4993501;28;20615;-63
2022/12/08 04:22:20;;;;;;;3.17;1.85;;;5.30;99.90;;;5.40;87.24;100084.63;5010702;28;20203;-63
2022/12/08 04:24:47;;;;;;;1.52;1.42;;;5.30;99.90;;;5.25;87.93;100083.78;4992874;28;20207;-63
2022/12/08 04:27:14;;;;;;;1.63;1.50;;;5.20;99.90;;;5.24;88.08;100091.59;5025624;28;20616;-63
2022/12/08 04:29:41;;;;;;;1.77;1.33;;;5.20;99.90;;;5.10;88.83;100089.84;5031648;28;20293;-63
2022/12/08 04:32:07;;;;;;;1.55;1.20;;;5.10;99.90;;;5.20;88.51;100090.97;5014284;28;20209;-63
2022/12/08 04:34:34;;;;;;;1.58;1.35;;;5.10;99.90;;;5.28;88.29;100093.09;5009658;28;20213;-64
2022/12/08 04:37:01;;;;;;;0.88;0.88;;;5.10;99.90;;;5.29;87.88;100087.00;5010500;28;20233;-64
2022/12/08 04:39:28;;;;;;;2.92;1.95;;;5.10;99.90;;;5.26;87.83;100092.38;4992360;28;20198;-63
2022/12/08 04:41:55;;;;;;;2.00;1.85;;;5.20;99.90;;;5.11;88.55;100081.13;5012781;28;20203;-64
2022/12/08 04:44:22;;;;;;;1.70;1.60;;;5.10;99.90;;;5.16;88.66;100081.72;5011257;28;20210;-63
2022/12/08 04:46:49;;;;;;;0.80;0.80;;;5.10;99.90;;;5.08;88.80;100081.34;5021662;28;20238;-64
2022/12/08 04:49:15;;;;;;;1.73;0.85;;;5.10;99.90;;;4.98;88.77;100079.38;4977657;28;20211;-64
2022/12/08 04:51:42;;;;;;;2.33;1.77;;;5.00;99.90;;;5.01;88.62;100074.00;4987964;28;20782;-64
2022/12/08 04:54:09;;;;;;;1.75;1.65;;;5.00;99.90;;;4.89;89.01;100075.56;5010089;28;20205;-64
2022/12/08 04:56:36;;;;;;;1.48;1.35;;;5.00;99.90;;;4.82;89.76;100078.56;5015795;28;20219;-64
2022/12/08 04:59:04;;;;;;;2.90;0.93;;;4.90;99.90;;;4.83;89.21;100082.81;5003848;28;20210;-63
2022/12/08 05:01:30;;;;;;;2.65;1.35;;;4.90;99.90;;;4.78;90.33;100083.09;5000381;28;20209;-64
2022/12/08 05:03:58;;;;;;;2.63;1.70;;;4.80;99.90;;;4.85;89.78;100088.75;5020122;28;20653;-63
2022/12/08 05:06:24;;;;;;;2.58;1.73;;;4.90;99.90;;;4.83;90.23;100082.81;5016047;28;20221;-66
2022/12/08 05:08:51;;;;;;;1.40;0.90;;;4.80;99.90;;;4.82;90.20;100079.41;5029725;28;20201;-65
2022/12/08 05:11:18;;;;;;;1.65;1.50;;;4.80;99.90;;;4.85;90.22;100076.66;5029062;28;20209;-65
2022/12/08 05:13:45;;;;;;;1.70;1.60;;;4.80;99.90;;;4.80;90.54;100085.56;5035365;28;20202;-64
2022/12/08 05:16:14;;;;;;;2.22;1.33;;;4.80;99.90;;;4.72;90.83;100086.88;5008583;28;20201;-65
2022/12/08 05:18:42;;;;;;;1.77;1.63;;;4.80;99.90;;;4.68;90.43;100081.94;5012874;28;20297;-65
2022/12/08 05:21:09;;;;;;;0.50;0.50;;;4.70;99.90;;;4.69;90.42;100081.00;5015394;28;20202;-65
2022/12/08 05:23:36;;;;;;;0.50;0.50;;;4.70;99.90;;;4.67;90.02;100075.94;5013033;28;20219;-65
2022/12/08 05:26:03;;;;;;;7.47;0.85;;;4.70;99.90;;;4.58;90.55;100076.44;5014950;28;20201;-63
2022/12/08 05:28:30;;;;;;;3.05;0.98;;;4.70;99.90;;;4.56;90.47;100064.53;5013984;28;20296;-63
2022/12/08 05:31:15;;;;;;;1.60;1.50;;;4.60;99.90;;;4.69;89.82;100063.75;5019714;28;20251;-64
2022/12/08 05:33:44;;;;;;;2.28;1.92;;;4.70;99.90;;;4.58;91.23;100070.44;5034000;28;20666;-63
2022/12/08 05:36:13;;;;;;;1.10;1.05;;;4.60;99.90;;;4.57;90.43;100064.47;5017325;28;20207;-63
2022/12/08 05:38:41;;;;;;;1.05;0.50;;;4.60;99.90;;;4.54;91.15;100069.78;5026613;28;20216;-63
2022/12/08 05:41:09;;;;;;;1.38;1.15;;;4.60;99.90;;;4.55;90.43;100076.66;5017693;28;20259;-64
2022/12/08 05:43:36;;;;;;;1.15;0.65;;;4.60;99.90;;;4.46;90.99;100068.56;5033211;28;20209;-63
2022/12/08 05:46:04;;;;;;;1.85;1.60;;;4.50;99.90;;;4.59;90.07;100072.13;5032705;28;20205;-65
2022/12/08 05:48:31;;;;;;;1.15;0.90;;;4.60;99.90;;;4.49;91.03;100071.78;5016582;28;20224;-64
2022/12/08 05:50:58;;;;;;;2.05;1.23;;;4.50;99.90;;;4.45;91.23;100065.13;5016752;28;20755;-63
2022/12/08 05:53:25;;;;;;;0.65;0.65;;;4.50;99.90;;;4.54;89.90;100068.97;4999547;28;20214;-64
2022/12/08 05:55:52;;;;;;;1.48;1.10;;;4.50;99.90;;;4.58;89.46;100068.69;4995805;28;20692;-64
2022/12/08 05:58:21;;;;;;;2.83;2.10;;;4.50;99.90;;;4.67;89.23;100065.59;4994509;28;20233;-64
2022/12/08 06:00:50;;;;;;;1.70;1.60;;;4.60;99.90;;;4.70;88.69;100070.63;5014940;28;20202;-64
2022/12/08 06:03:18;;;;;;;3.65;2.58;;;4.60;99.90;;;4.70;88.88;100062.84;4996550;28;20229;-64
2022/12/08 06:05:46;;;;;;;1.98;1.52;;;4.60;99.90;;;4.70;88.83;100068.03;5016827;28;20236;-64
2022/12/08 06:08:13;;;;;;;0.93;0.93;;;4.60;99.90;;;4.63;88.76;100071.03;5016792;28;20227;-63
2022/12/08 06:10:42;;;;;;;1.60;1.58;;;4.60;99.90;;;4.57;88.69;100077.38;5024855;28;20204;-63
2022/12/08 06:13:09;;;;;;;3.63;1.45;;;4.60;99.90;;;4.64;88.62;100076.09;5014977;28;20251;-63
2022/12/08 06:15:37;;;;;;;0.73;0.73;;;4.60;99.90;;;4.67;88.57;100075.94;5014822;28;20219;-63
2022/12/08 06:18:05;;;;;;;2.92;1.70;;;4.60;99.90;;;4.64;88.75;100070.13;5032428;28;20224;-64
2022/12/08 06:20:34;;;;;;;0.95;0.95;;;4.60;99.90;;;4.48;89.15;100066.72;5032419;28;20208;-62
2022/12/08 06:23:02;;;;;;;1.50;1.40;;;4.50;99.90;;;4.62;88.66;100071.97;4990500;28;20288;-64
2022/12/08 06:25:29;;;;;;;0.90;0.90;;;4.60;99.90;;;4.54;89.21;100064.63;4995490;28;20574;-64
2022/12/08 06:27:55;;;;;;;0.80;0.77;;;4.50;99.90;;;4.49;89.18;100058.06;5023495;28;20253;-64
2022/12/08 06:30:22;;;;;;;0.60;0.60;;;4.50;99.90;;;4.32;90.36;100068.50;5013297;28;20204;-63
2022/12/08 06:32:49;;;;;;;1.52;0.95;;;4.50;99.90;;;4.44;89.75;100060.91;5011893;28;20194;-64
2022/12/08 06:35:16;;;;;;;0.85;0.85;;;4.50;99.90;;;4.31;90.52;100064.25;4995125;28;20569;-63
2022/12/08 06:37:47;;;;;;;3.80;1.85;;;4.40;99.90;;;4.41;90.32;100055.06;5032768;28;20289;-63
2022/12/08 06:40:13;;;;;;;1.42;1.33;;;4.40;99.90;;;4.36;90.44;100063.09;5024991;28;20230;-63
2022/12/08 06:42:43;;;;;;;2.05;1.63;;;4.40;99.90;;;4.25;90.81;100062.84;4994337;28;20209;-64
2022/12/08 06:45:13;;;;;;;1.85;1.48;;;4.40;99.90;;;4.39;90.46;100062.06;4995579;28;20267;-63
2022/12/08 06:47:41;;;;;;;0.80;0.80;;;4.40;99.90;;;4.30;91.16;100063.41;5024355;28;20225;-63
2022/12/08 06:50:09;;;;;;;0.40;0.30;;;4.40;99.90;;;4.25;91.18;100052.50;5011551;28;20210;-63
2022/12/08 06:52:36;;;;;;;1.17;1.10;;;4.30;99.90;;;4.32;90.72;100056.41;5012583;28;20204;-63
2022/12/08 06:55:15;;;;;;;5.28;1.20;;;4.40;99.90;;;4.30;91.27;100054.84;4993302;28;20209;-63
2022/12/08 06:58:02;;;;;;;1.13;1.02;;;4.30;99.90;;;4.21;91.17;100056.19;4979026;28;20224;-63
2022/12/08 07:00:29;;;;;;;0.85;0.85;;;4.30;99.90;;;4.24;90.93;100065.50;5008670;28;20212;-63
2022/12/08 07:02:56;;;;;;;2.22;1.45;;;4.30;99.90;;;4.12;92.02;100066.16;5012517;28;20606;-63
2022/12/08 07:05:23;;;;;;;0.95;0.85;;;4.30;99.90;;;4.15;91.50;100056.53;5013185;28;20282;-63
2022/12/08 07:07:50;;;;;;;1.10;0.40;;;4.20;99.90;;;4.05;92.50;100064.81;5012998;28;20232;-63
2022/12/08 07:10:17;;;;;;;2.55;1.38;;;4.20;99.90;;;4.00;92.15;100066.84;5024829;28;20214;-63
2022/12/08 07:12:44;;;;;;;0.30;0.30;;;4.10;99.90;;;4.04;92.63;100065.75;5033297;28;20274;-63
2022/12/08 07:15:11;;;;;;;2.40;1.45;;;4.10;99.90;;;3.99;92.60;100068.56;5019223;28;20586;-63
2022/12/08 07:17:38;;;;;;;1.52;0.43;;;4.10;99.90;;;4.06;92.13;100064.75;5011009;28;21986;-64
2022/12/08 07:20:06;;;;;;;0.95;0.70;;;4.10;99.90;;;3.96;93.41;100078.25;5014011;28;20261;-63
2022/12/08 07:22:33;;;;;;;0.30;0.30;;;4.10;99.90;;;4.09;92.11;100077.47;4994559;28;20204;-66
2022/12/08 07:25:01;;;;;;;3.05;1.73;;;4.10;99.90;;;3.96;92.73;100081.66;4976403;28;20225;-63
2022/12/08 07:27:27;;;;;;;3.28;2.38;;;4.10;99.90;;;4.11;92.44;100080.00;4976846;28;20235;-64
2022/12/08 07:29:54;;;;;;;1.77;1.65;;;4.20;99.90;;;4.07;92.74;100079.31;5020718;28;20211;-64
2022/12/08 07:32:21;;;;;;;0.40;0.40;;;4.20;99.90;;;4.10;92.88;100074.00;5012041;28;20560;-64
2022/12/08 07:34:48;;;;;;;1.98;1.63;;;4.10;99.90;;;4.05;93.13;100069.97;5023592;28;20199;-63
2022/12/08 07:37:15;;;;;;;1.27;1.27;;;4.10;99.90;;;4.08;92.72;100067.25;5012053;28;20243;-64
2022/12/08 07:39:42;;;;;;;0.75;0.75;;;4.10;99.90;;;4.17;92.89;100069.34;5010603;28;20232;-64
2022/12/08 07:42:08;;;;;;;4.13;0.65;;;4.20;99.90;;;4.19;91.88;100068.34;5011308;28;20228;-64
2022/12/08 07:44:35;;;;;;;2.13;1.65;;;4.20;99.90;;;4.38;91.33;100066.41;5028425;28;20209;-63
2022/12/08 07:47:02;;;;;;;1.75;0.70;;;4.30;99.90;;;4.36;91.31;100068.25;5025515;28;20449;-64
2022/12/08 07:49:29;;;;;;;1.45;1.30;;;4.30;99.90;;;4.42;91.26;100070.50;5017051;28;20200;-64
2022/12/08 07:51:56;;;;;;;1.55;1.00;;;4.30;99.90;;;4.38;91.54;100060.41;5011718;28;20671;-64
2022/12/08 07:54:23;;;;;;;1.17;0.73;;;4.40;99.90;;;4.40;91.20;100072.31;5019690;28;20202;-64
2022/12/08 07:56:50;;;;;;;2.83;1.67;;;4.30;99.90;;;4.46;91.23;100069.41;5017460;28;20225;-64
2022/12/08 07:59:16;;;;;;;1.67;1.58;;;4.40;99.90;;;4.59;90.54;100069.53;5032176;28;20566;-63
2022/12/08 08:01:44;;;;;;;1.80;1.70;;;4.40;99.90;;;4.57;90.34;100074.81;5029161;28;20233;-63
2022/12/08 08:04:11;;;;;;;0.90;0.65;;;4.50;99.90;;;4.50;89.73;100068.31;5010714;28;20266;-63
2022/12/08 08:06:38;;;;;;;1.98;1.35;;;4.50;99.90;;;4.47;90.00;100068.47;5013524;28;20233;-63
2022/12/08 08:09:05;;;;;;;1.52;1.40;;;4.50;99.90;;;4.63;89.43;100074.44;5020335;28;20201;-64
2022/12/08 08:11:32;;;;;;;1.70;0.88;;;4.50;99.90;;;4.61;89.68;100068.53;4996956;28;20267;-64
2022/12/08 08:13:59;;;;;;;1.75;1.65;;;4.50;99.90;;;4.55;90.43;100066.31;5027202;28;20698;-64
2022/12/08 08:16:26;;;;;;;1.20;1.20;;;4.50;99.90;;;4.58;89.41;100066.13;4993963;28;20225;-64
2022/12/08 08:18:55;;;;;;;7.88;1.30;;;4.50;99.90;;;4.60;89.82;100068.59;4992924;28;20629;-63
2022/12/08 08:21:22;;;;;;;1.52;0.80;;;4.60;99.90;;;4.67;89.35;100064.75;4994932;28;20210;-64
2022/12/08 08:24:09;;;;;;;1.58;1.35;;;4.60;99.90;;;4.72;88.90;100068.78;4996774;28;20225;-63
2022/12/08 08:26:36;;;;;;;0.63;0.60;;;4.60;99.90;;;4.57;89.90;100063.63;4996357;28;20232;-64
2022/12/08 08:29:03;;;;;;;1.42;1.33;;;4.60;99.90;;;4.48;90.43;100061.56;5030913;28;20230;-64
2022/12/08 08:31:30;;;;;;;1.20;1.20;;;4.60;99.90;;;4.75;89.32;100064.34;5030517;28;20230;-65
2022/12/08 08:33:57;;;;;;;2.63;1.52;;;4.60;99.90;;;4.76;88.48;100066.00;5012711;28;20232;-64
2022/12/08 08:36:33;;;;;;;0.80;0.80;;;4.70;99.90;;;4.87;89.29;100066.22;5012823;28;20208;-64
2022/12/08 08:39:00;;;;;;;0.85;0.85;;;4.70;99.90;;;4.88;88.85;100066.13;5007031;28;20216;-66
2022/12/08 08:41:26;;;;;;;0.30;0.30;;;4.80;99.90;;;5.02;87.84;100062.75;5008420;28;20213;-66
2022/12/08 08:43:54;;;;;;;1.80;1.70;;;4.90;99.90;;;5.09;87.93;100071.84;5011957;28;20216;-65
2022/12/08 08:46:20;;;;;;;1.35;0.95;;;5.00;99.90;;;5.00;88.48;100074.94;5011970;28;20206;-66
2022/12/08 08:48:47;;;;;;;2.80;1.77;;;5.00;99.90;;;5.26;87.46;100074.25;4975484;28;20231;-63
2022/12/08 08:51:14;;;;;;;1.55;1.42;;;5.00;99.90;;;5.24;87.00;100065.72;4991807;28;20209;-66
2022/12/08 08:53:42;;;;;;;2.00;1.80;;;5.10;99.90;;;5.11;87.40;100064.81;5015841;28;20209;-66
2022/12/08 08:56:14;;;;;;;0.98;0.75;;;5.10;99.90;;;5.25;87.36;100068.25;4993632;28;20260;-66
2022/12/08 08:58:41;;;;;;;1.08;0.65;;;5.10;99.90;;;5.35;86.97;100065.94;5011464;28;20236;-66
2022/12/08 09:01:08;;;;;;;1.52;0.77;;;5.20;99.90;;;5.28;87.04;100064.66;5031195;28;20223;-66
2022/12/08 09:03:35;;;;;;;1.63;1.55;;;5.20;99.90;;;5.30;86.81;100066.22;5028968;28;20210;-65
2022/12/08 09:06:02;;;;;;;1.98;1.85;;;5.20;99.90;;;5.43;86.70;100061.97;5009819;28;20242;-66
2022/12/08 09:08:29;;;;;;;2.10;1.70;;;5.30;99.90;;;5.60;85.33;100062.72;5012396;28;20604;-66
2022/12/08 09:10:56;;;;;;;1.67;1.27;;;5.30;99.90;;;5.57;84.85;100063.75;4988748;28;20289;-66
2022/12/08 09:13:22;;;;;;;1.30;1.30;;;5.40;99.90;;;5.56;84.20;100059.47;5007324;28;20210;-66
2022/12/08 09:15:49;;;;;;;1.80;1.70;;;5.40;99.90;;;5.50;84.70;100058.09;5015577;28;20621;-66
2022/12/08 09:18:17;;;;;;;3.15;1.35;;;5.40;99.90;;;5.58;84.42;100057.63;5020893;28;20221;-67
2022/12/08 09:20:44;;;;;;;0.95;0.82;;;5.50;99.90;;;5.40;85.93;100056.16;5010950;28;20259;-65
2022/12/08 09:23:10;;;;;;;1.30;1.15;;;5.40;99.90;;;5.54;85.57;100055.34;4991093;28;20207;-65
2022/12/08 09:25:43;;;;;;;1.48;1.38;;;5.50;99.90;;;5.73;84.90;100054.09;5019939;28;20216;-65
2022/12/08 09:28:11;;;;;;;0.77;0.77;;;5.50;99.90;;;5.95;83.67;100053.66;4993931;28;20667;-64
2022/12/08 09:30:39;;;;;;;0.85;0.82;;;5.60;99.90;;;5.92;82.98;100052.09;5001682;28;20199;-63
2022/12/08 09:33:06;;;;;;;4.35;1.27;;;5.80;99.90;;;6.03;83.18;100062.63;5010820;28;20609;-64
2022/12/08 09:35:33;;;;;;;4.32;3.42;;;5.80;99.90;;;6.18;82.82;100061.66;5010318;28;20199;-65
2022/12/08 09:38:00;;;;;;;3.22;1.63;;;5.90;99.90;;;5.99;82.98;100058.56;5009801;28;20240;-62
2022/12/08 09:40:29;;;;;;;3.58;2.63;;;5.90;99.90;;;6.25;82.42;100055.19;5010574;28;20296;-65
2022/12/08 09:43:32;;;;;;;4.43;2.45;;;6.00;99.90;;;6.37;81.75;100048.38;5009644;28;20217;-65
2022/12/08 09:46:00;;;;;;;1.30;1.20;;;6.00;99.90;;;6.42;80.32;100048.06;4994403;28;20257;-65
2022/12/08 09:48:40;;;;;;;0.82;0.82;;;6.10;99.90;;;6.35;80.86;100046.78;4992736;28;20234;-64
2022/12/08 09:51:08;;;;;;;3.78;2.35;;;6.10;99.90;;;6.23;80.93;100035.47;4994222;28;20205;-65
2022/12/08 09:53:44;;;;;;;1.17;0.85;;;6.10;99.90;;;6.32;81.49;100034.06;5008313;28;20199;-64
2022/12/08 09:56:17;;;;;;;1.67;1.58;;;6.10;99.90;;;6.21;81.70;100030.41;4996370;28;20202;-65
2022/12/08 09:59:08;;;;;;;2.17;2.08;;;6.10;99.90;;;6.68;80.55;100035.13;4996025;28;20198;-63
2022/12/08 10:01:40;;;;;;;4.10;2.53;;;6.20;99.90;;;6.88;78.84;100023.41;4994788;28;20211;-64
2022/12/08 10:04:23;;;;;;;5.45;3.05;;;6.40;99.90;;;7.23;78.40;100016.72;4996535;28;20936;-65
2022/12/08 10:07:03;;;;;;;2.97;2.40;;;6.50;99.90;;;7.51;76.59;100015.66;5011550;28;20219;-64
2022/12/08 10:09:39;;;;;;;11.27;4.33;;;6.80;99.90;;;7.64;75.83;100012.13;5012520;28;21324;-65
2022/12/08 10:12:31;;;;;;;3.10;2.23;;;6.90;99.90;;;8.00;74.91;100016.47;5018486;28;20628;-64
2022/12/08 10:15:34;;;;;;;1.40;1.30;;;7.10;99.90;;;7.89;74.26;100013.81;5017689;28;20693;-65
2022/12/08 10:18:11;;;;;;;3.40;2.27;;;7.30;99.90;;;7.69;74.59;100010.00;5011017;28;20664;-64
2022/12/08 10:20:42;;;;;;;3.67;2.60;;;7.20;99.90;;;7.83;74.04;100009.06;5011292;28;21223;-65
2022/12/08 10:23:26;;;;;;;3.53;2.93;;;7.30;99.90;;;7.90;74.53;100002.47;4994958;28;20637;-65
2022/12/08 10:26:00;;;;;;;2.47;2.20;;;7.30;99.90;;;7.80;73.65;100002.31;5012811;28;20632;-65
2022/12/08 10:28:27;;;;;;;1.80;1.70;;;7.40;99.90;;;7.72;73.46;100001.19;4996480;28;20665;-62
2022/12/08 10:30:54;;;;;;;3.50;2.20;;;7.40;99.90;;;7.48;74.79;99995.09;5007062;28;20635;-65
2022/12/08 10:33:22;;;;;;;2.60;1.37;;;7.30;99.90;;;7.41;75.17;99996.47;5012218;28;20717;-65
2022/12/08 10:35:55;;;;;;;3.70;2.20;;;7.20;99.90;;;7.63;74.56;99988.84;5012485;28;21199;-65
2022/12/08 10:38:35;;;;;;;2.60;1.70;;;7.20;99.90;;;7.44;74.74;99986.69;4996454;28;20653;-65
2022/12/08 10:41:08;;;;;;;5.13;2.80;;;7.20;99.90;;;7.74;74.13;99984.56;4992841;28;20640;-65
2022/12/08 10:43:47;;;;;;;3.07;2.70;;;7.20;99.90;;;8.17;72.23;99989.28;4994310;28;20955;-65
2022/12/08 10:46:16;;;;;;;2.67;2.17;;;7.40;99.90;;;8.04;72.65;99980.72;5008842;28;20714;-65